createdAt,value
2023-02-25T00:01:08.430Z,1.70
2023-02-25T00:03:37.911Z,1.83
2023-02-25T00:06:07.743Z,1.60
2023-02-25T00:08:35.878Z,2.30
2023-02-25T00:11:05.722Z,2.10
2023-02-25T00:13:34.857Z,2.53
2023-02-25T00:16:05.969Z,2.13
2023-02-25T00:18:34.446Z,2.53
2023-02-25T00:21:06.444Z,2.70
2023-02-25T00:23:34.361Z,2.67
2023-02-25T00:26:03.218Z,2.77
2023-02-25T00:28:31.092Z,3.13
2023-02-25T00:30:59.044Z,3.20
2023-02-25T00:33:28.381Z,3.00
2023-02-25T00:35:56.273Z,3.37
2023-02-25T00:38:24.240Z,3.40
2023-02-25T00:40:52.236Z,3.30
2023-02-25T00:43:20.827Z,3.60
2023-02-25T00:45:48.857Z,3.87
2023-02-25T00:48:16.705Z,3.67
2023-02-25T00:50:45.963Z,3.83
2023-02-25T00:53:13.804Z,4.20
2023-02-25T00:55:45.163Z,4.60
2023-02-25T00:58:12.996Z,3.83
2023-02-25T01:00:51.243Z,4.27
2023-02-25T01:03:19.898Z,4.30
2023-02-25T01:05:49.876Z,4.27
2023-02-25T01:08:19.376Z,4.40
2023-02-25T01:10:48.373Z,4.47
2023-02-25T01:13:16.723Z,4.70
2023-02-25T01:15:44.756Z,4.67
2023-02-25T01:18:12.729Z,4.07
2023-02-25T01:20:41.473Z,5.23
2023-02-25T01:23:10.743Z,5.53
2023-02-25T01:25:42.021Z,5.00
2023-02-25T01:28:09.994Z,5.07
2023-02-25T01:30:39.075Z,4.57
2023-02-25T01:33:06.970Z,4.30
2023-02-25T01:35:36.985Z,4.37
2023-02-25T01:38:04.966Z,3.93
2023-02-25T01:40:34.234Z,3.90
2023-02-25T01:43:02.117Z,4.50
2023-02-25T01:45:33.036Z,4.30
2023-02-25T01:48:12.663Z,3.50
2023-02-25T01:50:47.935Z,3.30
2023-02-25T01:53:19.049Z,3.57
2023-02-25T01:55:48.892Z,2.70
2023-02-25T01:58:18.436Z,3.10
2023-02-25T02:00:46.585Z,2.67
2023-02-25T02:03:17.168Z,3.00
2023-02-25T02:05:57.164Z,2.80
2023-02-25T02:08:27.313Z,3.10
2023-02-25T02:10:57.473Z,3.00
2023-02-25T02:13:25.903Z,3.07
2023-02-25T02:16:08.237Z,3.10
2023-02-25T02:18:42.170Z,2.87
2023-02-25T02:21:25.389Z,2.80
2023-02-25T02:24:22.323Z,3.00
2023-02-25T02:27:02.839Z,3.23
2023-02-25T02:30:13.633Z,3.37
2023-02-25T02:32:48.940Z,3.50
2023-02-25T02:35:24.911Z,3.17
2023-02-25T02:38:05.414Z,3.20
2023-02-25T02:40:44.616Z,3.37
2023-02-25T02:43:24.114Z,3.60
2023-02-25T02:46:00.502Z,3.03
2023-02-25T02:48:39.291Z,3.37
2023-02-25T02:51:11.841Z,3.30
2023-02-25T02:53:46.818Z,3.30
2023-02-25T02:56:17.632Z,3.20
2023-02-25T02:58:49.500Z,3.13
2023-02-25T03:01:21.955Z,3.13
2023-02-25T03:03:54.829Z,3.00
2023-02-25T03:06:25.835Z,3.10
2023-02-25T03:08:57.318Z,3.30
2023-02-25T03:11:25.189Z,3.40
2023-02-25T03:13:54.064Z,3.33
2023-02-25T03:16:28.994Z,3.13
2023-02-25T03:19:04.556Z,3.50
2023-02-25T03:21:37.089Z,3.60
2023-02-25T03:24:09.641Z,3.10
2023-02-25T03:26:37.609Z,3.13
2023-02-25T03:29:05.565Z,3.13
2023-02-25T03:31:40.106Z,3.27
2023-02-25T03:34:13.820Z,2.83
2023-02-25T03:36:45.123Z,2.63
2023-02-25T03:39:16.984Z,2.73
2023-02-25T03:41:48.971Z,2.50
2023-02-25T03:44:21.949Z,2.60
2023-02-25T03:46:51.712Z,2.57
2023-02-25T03:49:26.822Z,2.70
2023-02-25T03:51:57.909Z,2.60
2023-02-25T03:54:27.472Z,2.43
2023-02-25T03:56:55.409Z,2.83
2023-02-25T03:59:26.353Z,2.60
2023-02-25T04:01:55.561Z,3.10
2023-02-25T04:04:24.879Z,2.93
2023-02-25T04:06:52.800Z,2.80
2023-02-25T04:09:21.016Z,3.17
2023-02-25T04:11:49.681Z,3.23
2023-02-25T04:14:18.517Z,2.80
2023-02-25T04:16:46.409Z,3.00
2023-02-25T04:19:14.256Z,2.97
2023-02-25T04:21:43.801Z,3.30
2023-02-25T04:24:11.796Z,3.23
2023-02-25T04:26:39.646Z,2.83
2023-02-25T04:29:07.755Z,2.70
2023-02-25T04:31:35.865Z,2.87
2023-02-25T04:34:03.865Z,3.00
2023-02-25T04:36:33.824Z,2.60
2023-02-25T04:39:06.322Z,3.03
2023-02-25T04:41:36.414Z,3.10
2023-02-25T04:44:05.256Z,2.53
2023-02-25T04:46:33.843Z,2.90
2023-02-25T04:49:02.036Z,2.60
2023-02-25T04:51:29.901Z,2.67
2023-02-25T04:53:57.748Z,2.83
2023-02-25T04:56:27.750Z,3.10
2023-02-25T04:58:55.617Z,3.30
2023-02-25T05:01:23.541Z,2.73
2023-02-25T05:03:57.052Z,3.27
2023-02-25T05:06:25.430Z,3.37
2023-02-25T05:08:53.547Z,3.37
2023-02-25T05:11:22.410Z,3.17
2023-02-25T05:13:52.209Z,3.33
2023-02-25T05:16:20.731Z,3.30
2023-02-25T05:18:49.206Z,3.37
2023-02-25T05:21:19.615Z,3.10
2023-02-25T05:23:49.466Z,3.23
2023-02-25T05:26:21.662Z,3.57
2023-02-25T05:28:51.972Z,3.20
2023-02-25T05:31:20.954Z,3.33
2023-02-25T05:33:49.110Z,3.20
2023-02-25T05:36:17.383Z,2.97
2023-02-25T05:38:46.153Z,3.20
2023-02-25T05:41:15.046Z,3.17
2023-02-25T05:43:45.226Z,3.40
2023-02-25T05:46:15.002Z,3.73
2023-02-25T05:48:46.707Z,3.50
2023-02-25T05:51:17.470Z,3.37
2023-02-25T05:53:47.883Z,3.57
2023-02-25T05:56:18.546Z,3.10
2023-02-25T05:58:48.471Z,3.37
2023-02-25T06:01:20.657Z,3.50
2023-02-25T06:03:50.245Z,2.93
2023-02-25T06:06:23.298Z,3.20
2023-02-25T06:08:51.906Z,3.17
2023-02-25T06:11:22.829Z,2.77
2023-02-25T06:13:51.522Z,2.80
2023-02-25T06:16:21.848Z,3.10
2023-02-25T06:18:51.554Z,3.23
2023-02-25T06:21:20.001Z,3.10
2023-02-25T06:23:50.197Z,2.90
2023-02-25T06:26:18.398Z,3.87
2023-02-25T06:28:46.805Z,3.30
2023-02-25T06:31:16.624Z,3.17
2023-02-25T06:33:46.782Z,3.17
2023-02-25T06:36:15.679Z,3.40
2023-02-25T06:38:46.144Z,3.30
2023-02-25T06:41:16.875Z,3.00
2023-02-25T06:43:47.575Z,2.90
2023-02-25T06:46:15.961Z,3.40
2023-02-25T06:48:45.432Z,3.33
2023-02-25T06:51:14.152Z,3.27
2023-02-25T06:53:43.822Z,3.00
2023-02-25T06:56:14.138Z,3.10
2023-02-25T06:58:42.331Z,3.33
2023-02-25T07:01:11.968Z,2.77
2023-02-25T07:03:39.955Z,3.20
2023-02-25T07:06:09.936Z,3.03
2023-02-25T07:08:38.008Z,2.93
2023-02-25T07:11:15.120Z,4.00
2023-02-25T07:13:43.924Z,3.20
2023-02-25T07:16:12.012Z,3.63
2023-02-25T07:18:39.997Z,3.10
2023-02-25T07:21:09.699Z,3.10
2023-02-25T07:23:37.560Z,3.90
2023-02-25T07:26:06.578Z,3.70
2023-02-25T07:28:34.923Z,3.60
2023-02-25T07:31:03.267Z,3.30
2023-02-25T07:33:31.993Z,3.13
2023-02-25T07:35:59.930Z,2.60
2023-02-25T07:38:29.185Z,2.63
2023-02-25T07:40:57.052Z,3.27
2023-02-25T07:43:25.020Z,3.00
2023-02-25T07:45:52.881Z,3.00
2023-02-25T07:48:23.519Z,3.17
2023-02-25T07:50:51.406Z,2.80
2023-02-25T07:53:21.932Z,3.13
2023-02-25T07:55:51.615Z,3.10
2023-02-25T07:58:19.560Z,3.30
2023-02-25T08:00:47.614Z,3.10
2023-02-25T08:03:15.495Z,2.63
2023-02-25T08:05:43.356Z,2.87
2023-02-25T08:08:13.186Z,3.43
2023-02-25T08:10:41.036Z,2.80
2023-02-25T08:13:10.584Z,2.73
2023-02-25T08:15:42.683Z,3.13
2023-02-25T08:18:10.999Z,2.90
2023-02-25T08:20:38.911Z,2.97
2023-02-25T08:23:06.758Z,3.13
2023-02-25T08:25:34.656Z,2.60
2023-02-25T08:28:02.658Z,2.70
2023-02-25T08:30:32.000Z,3.27
2023-02-25T08:32:59.948Z,3.33
2023-02-25T08:35:27.946Z,2.63
2023-02-25T08:37:55.859Z,2.63
2023-02-25T08:40:23.738Z,2.93
2023-02-25T08:42:51.645Z,3.30
2023-02-25T08:45:21.906Z,3.20
2023-02-25T08:47:51.195Z,3.07
2023-02-25T08:50:19.363Z,3.10
2023-02-25T08:52:47.259Z,3.37
2023-02-25T08:55:15.599Z,3.23
2023-02-25T08:57:43.827Z,3.07
2023-02-25T09:00:15.322Z,3.20
2023-02-25T09:02:44.964Z,2.80
2023-02-25T09:05:14.251Z,3.00
2023-02-25T09:07:42.177Z,2.53
2023-02-25T09:10:13.296Z,3.50
2023-02-25T09:12:42.342Z,3.10
2023-02-25T09:15:11.776Z,3.00
2023-02-25T09:17:39.761Z,3.10
2023-02-25T09:20:11.282Z,2.87
2023-02-25T09:22:41.282Z,2.97
2023-02-25T09:25:09.593Z,2.17
2023-02-25T09:27:37.836Z,3.10
2023-02-25T09:30:06.505Z,2.97
2023-02-25T09:32:34.490Z,3.00
2023-02-25T09:35:03.815Z,2.87
2023-02-25T09:37:31.730Z,3.43
2023-02-25T09:40:01.261Z,3.20
2023-02-25T09:42:40.391Z,3.50
2023-02-25T09:45:17.899Z,3.37
2023-02-25T09:47:51.642Z,3.17
2023-02-25T09:50:24.226Z,3.50
2023-02-25T09:53:05.238Z,2.60
2023-02-25T09:55:36.986Z,2.60
2023-02-25T09:58:15.478Z,2.90
2023-02-25T10:00:47.358Z,2.87
2023-02-25T10:03:22.208Z,2.57
2023-02-25T10:05:58.725Z,2.90
2023-02-25T10:08:32.130Z,2.53
2023-02-25T10:11:07.474Z,2.83
2023-02-25T10:13:45.294Z,3.37
2023-02-25T10:16:30.960Z,2.50
2023-02-25T10:19:10.433Z,2.67
2023-02-25T10:22:02.103Z,2.57
2023-02-25T10:24:35.831Z,3.00
2023-02-25T10:27:17.923Z,2.40
2023-02-25T10:29:50.390Z,3.10
2023-02-25T10:32:23.026Z,2.87
2023-02-25T10:34:53.109Z,2.80
2023-02-25T10:37:27.227Z,2.50
2023-02-25T10:40:03.384Z,2.90
2023-02-25T10:42:35.184Z,2.53
2023-02-25T10:45:09.284Z,2.70
2023-02-25T10:47:39.997Z,2.40
2023-02-25T10:50:22.111Z,2.30
2023-02-25T10:52:56.870Z,2.47
2023-02-25T10:55:51.782Z,2.50
2023-02-25T10:58:28.853Z,2.40
2023-02-25T11:01:00.756Z,2.60
2023-02-25T11:03:31.852Z,2.87
2023-02-25T11:06:25.504Z,2.73
2023-02-25T11:08:54.962Z,2.20
2023-02-25T11:11:24.923Z,2.60
2023-02-25T11:14:02.963Z,2.50
2023-02-25T11:16:35.272Z,2.70
2023-02-25T11:19:14.902Z,2.60
2023-02-25T11:21:43.310Z,2.37
2023-02-25T11:24:16.185Z,2.30
2023-02-25T11:26:46.591Z,2.20
2023-02-25T11:29:20.769Z,2.50
2023-02-25T11:31:53.504Z,2.10
2023-02-25T11:34:24.593Z,2.20
2023-02-25T11:36:53.237Z,1.87
2023-02-25T11:39:26.809Z,2.40
2023-02-25T11:41:56.636Z,2.20
2023-02-25T11:44:28.748Z,2.13
2023-02-25T11:47:16.029Z,1.93
2023-02-25T11:50:08.851Z,2.40
2023-02-25T11:52:44.525Z,2.00
2023-02-25T11:55:21.744Z,2.10
2023-02-25T11:58:03.750Z,2.00
2023-02-25T12:00:39.885Z,2.27
2023-02-25T12:03:25.244Z,2.53
2023-02-25T12:06:07.844Z,2.53
2023-02-25T12:08:50.115Z,3.00
2023-02-25T12:11:58.966Z,2.73
2023-02-25T12:15:00.347Z,2.67
2023-02-25T12:18:11.263Z,2.50
2023-02-25T12:21:14.315Z,4.30
2023-02-25T12:24:08.526Z,3.30
2023-02-25T12:26:54.748Z,3.07
2023-02-25T12:29:47.504Z,3.20
2023-02-25T12:32:46.427Z,3.30
2023-02-25T12:35:49.850Z,3.30
2023-02-25T12:38:57.313Z,2.83
2023-02-25T12:41:39.734Z,3.50
2023-02-25T12:44:34.517Z,3.10
2023-02-25T12:47:18.988Z,3.03
2023-02-25T12:50:19.784Z,2.80
2023-02-25T12:53:04.475Z,2.43
2023-02-25T12:55:52.665Z,2.60
2023-02-25T12:58:40.955Z,2.50
2023-02-25T13:01:44.199Z,2.90
2023-02-25T13:04:45.285Z,2.27
2023-02-25T13:07:31.852Z,2.33
2023-02-25T13:10:22.282Z,2.17
2023-02-25T13:13:05.830Z,2.33
2023-02-25T13:15:48.448Z,2.20
2023-02-25T13:18:35.122Z,2.70
2023-02-25T13:21:26.354Z,1.90
2023-02-25T13:24:21.158Z,1.97
2023-02-25T13:27:06.863Z,2.10
2023-02-25T13:29:51.077Z,1.97
2023-02-25T13:32:31.347Z,2.00
2023-02-25T13:35:26.996Z,2.60
2023-02-25T13:38:06.541Z,2.53
2023-02-25T13:40:48.472Z,2.50
2023-02-25T13:43:39.630Z,2.60
2023-02-25T13:46:23.723Z,4.90
2023-02-25T13:49:08.484Z,2.60
2023-02-25T13:51:58.239Z,2.93
2023-02-25T13:54:57.181Z,2.40
2023-02-25T13:57:44.105Z,2.50
2023-02-25T14:00:46.603Z,2.50
2023-02-25T14:03:34.659Z,2.50
2023-02-25T14:06:16.323Z,2.63
2023-02-25T14:09:09.189Z,2.33
2023-02-25T14:11:49.200Z,2.47
2023-02-25T14:14:43.472Z,2.10
2023-02-25T14:17:30.041Z,1.70
2023-02-25T14:20:13.171Z,1.90
2023-02-25T14:22:45.504Z,1.20
2023-02-25T14:25:23.800Z,1.37
2023-02-25T14:28:05.948Z,0.70
2023-02-25T14:30:43.793Z,1.70
2023-02-25T14:33:28.020Z,1.20
2023-02-25T14:36:07.182Z,1.27
2023-02-25T14:38:47.050Z,1.40
2023-02-25T14:41:34.431Z,2.10
2023-02-25T14:44:07.802Z,1.10
2023-02-25T14:46:43.072Z,1.53
2023-02-25T14:49:17.722Z,1.70
2023-02-25T14:52:02.400Z,1.13
2023-02-25T14:55:17.834Z,1.47
2023-02-25T14:58:21.227Z,4.57
2023-02-25T15:01:31.791Z,2.20
2023-02-25T15:04:23.299Z,2.13
2023-02-25T15:07:07.967Z,3.20
2023-02-25T15:10:14.707Z,3.20
2023-02-25T15:13:14.189Z,2.30
2023-02-25T15:15:59.768Z,1.40
2023-02-25T15:19:01.783Z,1.40
2023-02-25T15:21:40.941Z,2.57
2023-02-25T15:24:38.588Z,3.87
2023-02-25T15:27:45.790Z,2.97
2023-02-25T15:30:15.689Z,3.67
2023-02-25T15:33:08.034Z,1.30
2023-02-25T15:35:59.112Z,2.20
2023-02-25T15:38:43.144Z,1.00
2023-02-25T15:41:40.767Z,2.00
2023-02-25T15:44:33.588Z,1.40
2023-02-25T15:47:25.217Z,1.73
2023-02-25T15:49:54.812Z,1.60
2023-02-25T15:52:53.733Z,1.27
2023-02-25T15:55:39.024Z,2.17
2023-02-25T15:58:40.366Z,2.63
2023-02-25T16:01:25.600Z,2.50
2023-02-25T16:03:53.729Z,3.13
2023-02-25T16:06:24.134Z,2.20
2023-02-25T16:08:57.806Z,2.70
2023-02-25T16:11:37.758Z,2.73
2023-02-25T16:14:09.208Z,1.60
2023-02-25T16:16:42.051Z,1.60
2023-02-25T16:19:13.641Z,1.70
2023-02-25T16:21:46.774Z,2.27
2023-02-25T16:24:17.269Z,3.10
2023-02-25T16:26:54.406Z,3.50
2023-02-25T16:29:34.997Z,2.33
2023-02-25T16:32:07.472Z,3.10
2023-02-25T16:34:41.030Z,2.70
2023-02-25T16:37:15.578Z,3.80
2023-02-25T16:39:45.143Z,3.53
2023-02-25T16:42:15.507Z,3.70
2023-02-25T16:44:46.849Z,2.40
2023-02-25T16:47:25.405Z,1.43
2023-02-25T16:49:55.486Z,1.07
2023-02-25T16:52:27.879Z,0.70
2023-02-25T16:55:00.386Z,1.10
2023-02-25T16:57:29.122Z,1.50
2023-02-25T17:00:15.315Z,2.00
2023-02-25T17:02:48.719Z,3.40
2023-02-25T17:05:30.142Z,4.77
2023-02-25T17:08:01.170Z,4.33
2023-02-25T17:10:34.683Z,4.23
2023-02-25T17:13:05.343Z,4.73
2023-02-25T17:15:36.230Z,4.37
2023-02-25T17:18:09.909Z,4.40
2023-02-25T17:20:38.362Z,4.20
2023-02-25T17:23:09.558Z,4.37
2023-02-25T17:25:42.146Z,5.10
2023-02-25T17:28:21.933Z,5.53
2023-02-25T17:30:50.516Z,5.40
2023-02-25T17:33:26.336Z,6.00
2023-02-25T17:35:57.637Z,6.43
2023-02-25T17:38:28.990Z,5.20
2023-02-25T17:40:59.336Z,4.90
2023-02-25T17:43:37.504Z,6.23
2023-02-25T17:46:17.036Z,4.50
2023-02-25T17:48:52.168Z,4.00
2023-02-25T17:51:28.230Z,5.00
2023-02-25T17:53:59.288Z,4.93
2023-02-25T17:56:30.861Z,4.80
2023-02-25T17:59:05.627Z,4.20
2023-02-25T18:01:48.075Z,3.83
2023-02-25T18:04:25.076Z,3.40
2023-02-25T18:06:53.467Z,2.33
2023-02-25T18:09:38.408Z,1.87
2023-02-25T18:12:14.733Z,1.73
2023-02-25T18:14:45.764Z,2.47
2023-02-25T18:17:23.193Z,2.50
2023-02-25T18:19:51.382Z,3.27
2023-02-25T18:22:36.649Z,5.33
2023-02-25T18:25:08.737Z,3.57
2023-02-25T18:27:38.161Z,7.23
2023-02-25T18:30:22.321Z,3.37
2023-02-25T18:32:50.255Z,3.60
2023-02-25T18:35:19.317Z,2.63
2023-02-25T18:37:49.675Z,2.00
2023-02-25T18:40:21.145Z,1.93
2023-02-25T18:42:50.456Z,2.60
2023-02-25T18:45:21.211Z,2.50
2023-02-25T18:47:50.546Z,3.33
2023-02-25T18:50:18.613Z,2.80
2023-02-25T18:52:47.238Z,2.73
2023-02-25T18:55:24.485Z,2.73
2023-02-25T18:57:54.001Z,2.03
2023-02-25T19:00:24.553Z,2.20
2023-02-25T19:02:54.174Z,1.90
2023-02-25T19:05:24.058Z,1.77
2023-02-25T19:07:52.202Z,1.70
2023-02-25T19:10:23.812Z,1.07
2023-02-25T19:12:59.656Z,1.13
2023-02-25T19:15:27.712Z,3.40
2023-02-25T19:17:55.622Z,1.83
2023-02-25T19:20:24.352Z,1.23
2023-02-25T19:22:53.641Z,1.70
2023-02-25T19:25:24.879Z,1.33
2023-02-25T19:27:56.007Z,1.20
2023-02-25T19:30:26.559Z,1.40
2023-02-25T19:32:55.494Z,1.23
2023-02-25T19:35:23.391Z,1.00
2023-02-25T19:37:51.291Z,1.10
2023-02-25T19:40:19.568Z,1.10
2023-02-25T19:42:48.874Z,1.00
2023-02-25T19:45:21.633Z,1.00
2023-02-25T19:47:50.757Z,1.00
2023-02-25T19:50:20.740Z,0.90
2023-02-25T19:52:48.854Z,1.20
2023-02-25T19:55:17.062Z,1.00
2023-02-25T19:57:45.060Z,0.87
2023-02-25T20:00:15.269Z,0.60
2023-02-25T20:02:45.082Z,0.73
2023-02-25T20:05:14.609Z,1.20
2023-02-25T20:07:43.228Z,1.17
2023-02-25T20:10:13.692Z,0.80
2023-02-25T20:12:42.864Z,3.13
2023-02-25T20:15:13.006Z,4.40
2023-02-25T20:17:42.214Z,3.10
2023-02-25T20:20:14.280Z,1.10
2023-02-25T20:22:42.822Z,2.87
2023-02-25T20:25:13.309Z,3.60
2023-02-25T20:27:43.692Z,3.90
2023-02-25T20:30:14.698Z,2.30
2023-02-25T20:32:44.052Z,2.27
2023-02-25T20:35:17.758Z,3.40
2023-02-25T20:37:55.303Z,3.43
2023-02-25T20:40:23.550Z,4.20
2023-02-25T20:42:51.650Z,4.50
2023-02-25T20:45:20.258Z,3.00
2023-02-25T20:47:48.553Z,2.47
2023-02-25T20:50:23.389Z,2.30
2023-02-25T20:52:51.429Z,1.90
2023-02-25T20:55:19.470Z,1.97
2023-02-25T20:57:47.362Z,1.60
2023-02-25T21:00:16.690Z,1.47
2023-02-25T21:02:44.573Z,1.80
2023-02-25T21:05:12.499Z,1.87
2023-02-25T21:07:43.645Z,1.60
2023-02-25T21:10:12.747Z,1.40
2023-02-25T21:12:40.637Z,1.50
2023-02-25T21:15:09.707Z,1.73
2023-02-25T21:17:37.635Z,2.20
2023-02-25T21:20:06.874Z,1.40
2023-02-25T21:22:35.318Z,1.93
2023-02-25T21:25:05.186Z,1.90
2023-02-25T21:27:33.041Z,2.00
2023-02-25T21:30:01.413Z,2.03
2023-02-25T21:32:29.266Z,1.50
2023-02-25T21:34:57.193Z,2.00
2023-02-25T21:37:25.102Z,1.33
2023-02-25T21:39:52.945Z,1.60
2023-02-25T21:42:22.539Z,1.60
2023-02-25T21:44:50.493Z,1.43
2023-02-25T21:47:18.395Z,1.27
2023-02-25T21:49:46.364Z,1.50
2023-02-25T21:52:14.260Z,1.67
2023-02-25T21:54:42.108Z,1.30
2023-02-25T21:57:10.061Z,1.20
2023-02-25T21:59:39.293Z,1.33
2023-02-25T22:02:07.202Z,1.30
2023-02-25T22:04:35.129Z,1.17
2023-02-25T22:07:03.049Z,1.00
2023-02-25T22:09:31.022Z,1.10
2023-02-25T22:11:59.066Z,0.70
2023-02-25T22:14:26.979Z,1.07
2023-02-25T22:16:56.298Z,0.80
2023-02-25T22:19:24.294Z,1.00
2023-02-25T22:21:52.248Z,1.03
2023-02-25T22:24:20.117Z,1.27
2023-02-25T22:26:48.383Z,1.20
2023-02-25T22:29:17.064Z,1.53
2023-02-25T22:31:45.076Z,1.10
2023-02-25T22:34:14.469Z,1.40
2023-02-25T22:36:42.332Z,1.10
2023-02-25T22:39:10.975Z,1.43
2023-02-25T22:41:39.254Z,1.60
2023-02-25T22:44:07.633Z,2.07
2023-02-25T22:46:37.725Z,1.27
2023-02-25T22:49:06.695Z,1.47
2023-02-25T22:51:40.464Z,1.90
2023-02-25T22:54:08.712Z,1.67
2023-02-25T22:56:36.722Z,1.43
2023-02-25T22:59:04.696Z,1.57
2023-02-25T23:01:32.856Z,1.90
2023-02-25T23:04:01.839Z,1.30
2023-02-25T23:06:42.806Z,1.57
2023-02-25T23:09:13.736Z,1.40
2023-02-25T23:11:43.786Z,1.50
2023-02-25T23:14:11.833Z,1.83
2023-02-25T23:16:42.090Z,1.70
2023-02-25T23:19:13.216Z,1.97
2023-02-25T23:21:41.580Z,1.40
2023-02-25T23:24:18.399Z,1.03
2023-02-25T23:26:50.332Z,1.50
2023-02-25T23:29:18.394Z,1.20
2023-02-25T23:31:48.012Z,1.40
2023-02-25T23:34:20.629Z,1.20
2023-02-25T23:36:49.384Z,1.40
2023-02-25T23:39:17.463Z,1.20
2023-02-25T23:41:45.546Z,1.47
2023-02-25T23:44:15.802Z,1.30
2023-02-25T23:46:45.106Z,1.57
2023-02-25T23:49:17.827Z,1.50
2023-02-25T23:51:47.929Z,1.70
2023-02-25T23:54:18.425Z,1.30
2023-02-25T23:56:46.349Z,1.53
2023-02-25T23:59:15.784Z,1.60
